Time;durP1;ratioP1;P1;durP2;ratioP2;P2;SDS_P1;SDS_P2;PMS_P1;PMS_P2;Temp;Humidity;BMP_temperature;BMP_pressure;BME280_temperature;BME280_humidity;BME280_pressure;Samples;Min_cycle;Max_cycle;Signal;HPM_P1;HPM_P2
2022/04/08 00:00:14;;;;;;;0.98;0.60;;;11.90;1.00;;;;;;4973149;28;20099;-84
2022/04/08 00:02:41;;;;;;;0.85;0.85;;;11.90;1.00;;;;;;4973362;28;20491;-83
2022/04/08 00:05:07;;;;;;;0.82;0.70;;;11.50;1.00;;;;;;4973345;28;20035;-83
2022/04/08 00:07:33;;;;;;;0.75;0.70;;;11.60;1.00;;;;;;4973741;28;20027;-83
2022/04/08 00:09:58;;;;;;;0.73;0.68;;;11.50;1.00;;;;;;4972967;28;20052;-84
2022/04/08 00:12:24;;;;;;;2.03;0.82;;;11.50;1.00;;;;;;4972948;28;20043;-84
2022/04/08 00:14:50;;;;;;;1.13;0.70;;;11.50;1.00;;;;;;4973115;28;20077;-83
2022/04/08 00:17:15;;;;;;;0.63;0.63;;;11.50;1.00;;;;;;4973021;28;20026;-83
2022/04/08 00:19:41;;;;;;;1.13;0.80;;;11.50;1.00;;;;;;4973262;28;20479;-83
2022/04/08 00:22:07;;;;;;;1.75;0.82;;;11.50;1.00;;;;;;4973323;28;20085;-83
2022/04/08 00:24:33;;;;;;;0.88;0.60;;;11.60;1.00;;;;;;4973060;28;20030;-84
2022/04/08 00:26:59;;;;;;;0.93;0.80;;;11.50;1.00;;;;;;4972578;28;20031;-83
2022/04/08 00:29:24;;;;;;;0.50;0.50;;;11.60;1.00;;;;;;4972638;28;20163;-83
2022/04/08 00:31:57;;;;;;;0.73;0.65;;;11.40;1.00;;;;;;4972699;28;20475;-83
2022/04/08 00:34:23;;;;;;;1.10;0.77;;;11.70;1.00;;;;;;4974014;28;20042;-83
2022/04/08 00:36:49;;;;;;;1.15;0.90;;;11.90;1.00;;;;;;4972207;28;20050;-83
2022/04/08 00:39:14;;;;;;;0.60;0.57;;;12.00;1.00;;;;;;4972512;28;20038;-83
2022/04/08 00:41:40;;;;;;;1.33;0.80;;;12.00;1.00;;;;;;4973010;28;20019;-84
2022/04/08 00:44:06;;;;;;;0.52;0.52;;;12.00;1.00;;;;;;4972862;28;20030;-83
2022/04/08 00:46:32;;;;;;;1.98;0.50;;;11.90;1.00;;;;;;4973630;28;20144;-83
2022/04/08 00:48:57;;;;;;;1.88;0.73;;;12.00;1.00;;;;;;4972587;28;20059;-83
2022/04/08 00:51:23;;;;;;;0.75;0.60;;;12.00;1.00;;;;;;4971994;28;20061;-83
2022/04/08 00:53:50;;;;;;;0.60;0.57;;;12.10;1.00;;;;;;4972288;28;20045;-83
2022/04/08 00:56:17;;;;;;;1.05;0.50;;;12.00;1.00;;;;;;4955074;28;20026;-84
2022/04/08 00:58:43;;;;;;;0.50;0.50;;;12.00;1.00;;;;;;4972540;28;20031;-84
2022/04/08 01:01:08;;;;;;;0.40;0.35;;;12.10;1.00;;;;;;4972972;28;20030;-83
2022/04/08 01:03:34;;;;;;;1.08;0.52;;;12.10;1.00;;;;;;4972017;28;20042;-83
2022/04/08 01:05:59;;;;;;;0.80;0.60;;;12.10;1.00;;;;;;4971843;28;20098;-83
2022/04/08 01:08:25;;;;;;;2.47;0.52;;;12.10;1.00;;;;;;4972503;28;20068;-83
2022/04/08 01:10:53;;;;;;;0.40;0.40;;;12.20;1.00;;;;;;4972329;28;20031;-83
2022/04/08 01:13:19;;;;;;;0.63;0.52;;;12.20;1.00;;;;;;4972994;28;20133;-83
2022/04/08 01:15:45;;;;;;;0.77;0.52;;;12.20;1.00;;;;;;4972228;28;20113;-83
2022/04/08 01:18:10;;;;;;;0.68;0.60;;;12.20;1.00;;;;;;4971896;28;20568;-84
2022/04/08 01:20:36;;;;;;;0.80;0.50;;;12.20;1.00;;;;;;4971184;28;20395;-84
2022/04/08 01:23:02;;;;;;;0.47;0.47;;;12.30;1.00;;;;;;4972602;28;20037;-83
2022/04/08 01:25:28;;;;;;;0.60;0.60;;;12.30;1.00;;;;;;4972983;28;20054;-83
2022/04/08 01:27:53;;;;;;;1.35;0.70;;;12.30;1.00;;;;;;4971860;28;20027;-84
2022/04/08 01:30:19;;;;;;;0.50;0.50;;;12.40;1.00;;;;;;4972020;28;20026;-83
2022/04/08 01:32:45;;;;;;;0.50;0.40;;;12.40;1.00;;;;;;4971876;28;20038;-83
2022/04/08 01:35:11;;;;;;;0.40;0.40;;;12.40;1.00;;;;;;4971934;28;20031;-84
2022/04/08 01:37:36;;;;;;;1.35;0.57;;;12.30;1.00;;;;;;4972517;28;20051;-84
2022/04/08 01:40:02;;;;;;;0.82;0.57;;;12.30;1.00;;;;;;4971940;28;20023;-84
2022/04/08 01:42:28;;;;;;;3.13;0.52;;;12.20;1.00;;;;;;4954277;28;20079;-84
2022/04/08 01:44:55;;;;;;;0.88;0.63;;;12.20;1.00;;;;;;4972607;28;20106;-83
2022/04/08 01:47:21;;;;;;;0.50;0.47;;;12.20;1.00;;;;;;4971560;28;20090;-83
2022/04/08 01:49:47;;;;;;;0.40;0.40;;;12.30;1.00;;;;;;4972357;28;20154;-83
2022/04/08 01:52:13;;;;;;;1.35;0.52;;;12.30;1.00;;;;;;4970521;28;20117;-84
2022/04/08 01:54:39;;;;;;;0.63;0.50;;;12.30;1.00;;;;;;4971842;28;20506;-84
2022/04/08 01:57:04;;;;;;;1.35;0.60;;;12.30;1.00;;;;;;4971631;28;20031;-83
2022/04/08 01:59:30;;;;;;;0.60;0.60;;;12.30;1.00;;;;;;4972617;28;20455;-84
2022/04/08 02:01:59;;;;;;;1.15;0.70;;;12.30;1.00;;;;;;4971277;28;20518;-83
2022/04/08 02:04:25;;;;;;;0.82;0.63;;;12.30;1.00;;;;;;4973034;28;20110;-84
2022/04/08 02:06:51;;;;;;;0.57;0.50;;;12.30;1.00;;;;;;4971805;28;20023;-83
2022/04/08 02:09:18;;;;;;;0.55;0.55;;;12.30;1.00;;;;;;4971257;28;20459;-84
2022/04/08 02:11:44;;;;;;;0.90;0.55;;;12.30;1.00;;;;;;4949400;28;20487;-83
2022/04/08 02:14:10;;;;;;;0.82;0.40;;;12.30;1.00;;;;;;4971794;28;20090;-83
2022/04/08 02:16:35;;;;;;;0.57;0.50;;;12.30;1.00;;;;;;4971430;28;20037;-83
2022/04/08 02:19:02;;;;;;;0.77;0.60;;;12.30;1.00;;;;;;4971738;28;20038;-83
2022/04/08 02:21:27;;;;;;;0.90;0.65;;;12.30;1.00;;;;;;4971623;28;20499;-83
2022/04/08 02:23:54;;;;;;;0.98;0.60;;;12.30;1.00;;;;;;4971694;28;20722;-83
2022/04/08 02:26:20;;;;;;;0.70;0.52;;;12.30;1.00;;;;;;4971331;28;20074;-83
2022/04/08 02:28:45;;;;;;;0.73;0.50;;;12.20;1.00;;;;;;4972000;28;20043;-83
2022/04/08 02:31:12;;;;;;;0.70;0.52;;;12.30;1.00;;;;;;4971366;28;20123;-84
2022/04/08 02:33:38;;;;;;;0.70;0.70;;;12.20;1.00;;;;;;4974559;28;20027;-83
2022/04/08 02:36:05;;;;;;;3.33;0.60;;;12.30;1.00;;;;;;4975058;28;20035;-83
2022/04/08 02:38:30;;;;;;;1.30;0.57;;;12.30;1.00;;;;;;4952290;29;20039;-83
2022/04/08 02:40:57;;;;;;;1.48;0.60;;;12.20;1.00;;;;;;4974668;28;20040;-84
2022/04/08 02:43:22;;;;;;;0.52;0.50;;;12.20;1.00;;;;;;4958083;28;20503;-83
2022/04/08 02:45:49;;;;;;;0.50;0.40;;;12.10;1.00;;;;;;4974186;28;20069;-84
2022/04/08 02:48:15;;;;;;;0.63;0.63;;;12.10;1.00;;;;;;4974483;28;20458;-84
2022/04/08 02:50:41;;;;;;;1.02;0.50;;;12.10;1.00;;;;;;4974445;28;20050;-84
2022/04/08 02:53:07;;;;;;;0.52;0.52;;;12.10;1.00;;;;;;4974927;28;20185;-84
2022/04/08 02:55:32;;;;;;;1.50;0.45;;;12.00;1.00;;;;;;4975461;28;20109;-84
2022/04/08 02:57:58;;;;;;;0.63;0.60;;;12.00;1.00;;;;;;4974635;28;20462;-84
2022/04/08 03:00:24;;;;;;;0.50;0.50;;;11.90;1.00;;;;;;4973937;28;20033;-83
2022/04/08 03:02:49;;;;;;;1.58;0.45;;;12.00;1.00;;;;;;4974536;28;20023;-84
2022/04/08 03:05:16;;;;;;;0.50;0.50;;;12.00;1.00;;;;;;4974766;28;20495;-83
2022/04/08 03:07:41;;;;;;;0.95;0.50;;;12.00;1.00;;;;;;4974499;28;20037;-84
2022/04/08 03:10:09;;;;;;;0.80;0.60;;;12.00;1.00;;;;;;4974961;28;20035;-83
2022/04/08 03:12:35;;;;;;;2.63;0.75;;;11.90;1.00;;;;;;4973920;28;20035;-84
2022/04/08 03:15:01;;;;;;;0.80;0.63;;;11.80;1.00;;;;;;4973812;28;20089;-84
2022/04/08 03:17:27;;;;;;;0.32;0.32;;;11.80;1.00;;;;;;4974760;28;20587;-83
2022/04/08 03:19:53;;;;;;;0.50;0.43;;;11.90;1.00;;;;;;4973978;28;20776;-84
2022/04/08 03:22:20;;;;;;;0.70;0.60;;;11.90;1.00;;;;;;4974794;28;20015;-83
2022/04/08 03:24:52;;;;;;;0.55;0.55;;;11.90;1.00;;;;;;4973856;28;20031;-84
2022/04/08 03:27:18;;;;;;;0.85;0.40;;;11.90;1.00;;;;;;4973890;28;20042;-84
2022/04/08 03:29:44;;;;;;;0.50;0.50;;;11.90;1.00;;;;;;4973652;28;20456;-84
2022/04/08 03:32:11;;;;;;;1.42;0.75;;;12.00;1.00;;;;;;4974256;28;20054;-84
2022/04/08 03:34:37;;;;;;;1.70;0.88;;;12.00;1.00;;;;;;4974041;28;20102;-83
2022/04/08 03:37:04;;;;;;;0.60;0.57;;;12.00;1.00;;;;;;4973929;28;20023;-83
2022/04/08 03:39:29;;;;;;;0.90;0.70;;;12.00;1.00;;;;;;4956172;28;20401;-83
2022/04/08 03:41:55;;;;;;;1.67;1.50;;;11.80;1.00;;;;;;4956616;28;20167;-83
2022/04/08 03:44:20;;;;;;;1.20;1.10;;;11.80;1.00;;;;;;4972072;28;20069;-84
2022/04/08 03:46:47;;;;;;;1.30;1.20;;;11.90;1.00;;;;;;4974025;28;20025;-84
2022/04/08 03:49:16;;;;;;;0.40;0.40;;;12.00;1.00;;;;;;4972185;28;20085;-84
2022/04/08 03:51:46;;;;;;;0.75;0.60;;;12.00;1.00;;;;;;4973213;28;20057;-84
2022/04/08 03:54:12;;;;;;;0.80;0.70;;;12.00;1.00;;;;;;4973160;28;20121;-84
2022/04/08 03:56:41;;;;;;;0.60;0.60;;;12.00;1.00;;;;;;4973789;28;20447;-84
2022/04/08 03:59:07;;;;;;;1.25;0.90;;;12.10;1.00;;;;;;4973156;28;20038;-83
2022/04/08 04:01:33;;;;;;;1.35;1.25;;;12.00;1.00;;;;;;4974065;28;20027;-83
2022/04/08 04:03:59;;;;;;;1.27;0.60;;;12.00;1.00;;;;;;4974023;28;20089;-84
2022/04/08 04:06:25;;;;;;;1.00;0.80;;;12.10;1.00;;;;;;4972908;28;20031;-83
2022/04/08 04:08:50;;;;;;;1.10;1.00;;;12.00;1.00;;;;;;4973207;28;20034;-83
2022/04/08 04:11:16;;;;;;;1.48;1.27;;;12.10;1.00;;;;;;4973108;28;20506;-83
2022/04/08 04:13:42;;;;;;;1.50;1.33;;;12.10;1.00;;;;;;4973016;28;20034;-84
2022/04/08 04:16:08;;;;;;;1.20;1.10;;;12.10;1.00;;;;;;4974002;28;20023;-83
2022/04/08 04:18:34;;;;;;;0.90;0.90;;;12.20;1.00;;;;;;4973125;28;20067;-83
2022/04/08 04:21:00;;;;;;;0.77;0.70;;;12.20;1.00;;;;;;4973405;28;20046;-83
2022/04/08 04:23:26;;;;;;;2.25;0.60;;;12.20;1.00;;;;;;4972982;28;20027;-84
2022/04/08 04:25:52;;;;;;;2.35;0.52;;;12.20;1.00;;;;;;4972988;28;20045;-83
2022/04/08 04:28:18;;;;;;;0.57;0.43;;;12.20;1.00;;;;;;4973198;28;20035;-83
2022/04/08 04:30:43;;;;;;;0.65;0.60;;;12.30;1.00;;;;;;4973096;28;20039;-83
2022/04/08 04:33:10;;;;;;;2.10;0.50;;;12.30;1.00;;;;;;4972855;28;20525;-83
2022/04/08 04:35:36;;;;;;;1.00;0.50;;;12.40;1.00;;;;;;4972812;28;20030;-83
2022/04/08 04:38:02;;;;;;;0.40;0.40;;;12.40;1.00;;;;;;4973228;28;20519;-83
2022/04/08 04:40:28;;;;;;;0.50;0.50;;;12.40;1.00;;;;;;4973535;28;20113;-83
2022/04/08 04:42:55;;;;;;;0.80;0.77;;;12.40;1.00;;;;;;4972198;28;20069;-83
2022/04/08 04:45:24;;;;;;;1.00;0.70;;;12.30;1.00;;;;;;4972637;28;20031;-83
2022/04/08 04:47:50;;;;;;;0.55;0.50;;;12.30;1.00;;;;;;4972419;28;20077;-84
2022/04/08 04:50:16;;;;;;;0.73;0.50;;;12.20;1.00;;;;;;4972419;28;20034;-83
2022/04/08 04:52:42;;;;;;;0.75;0.40;;;12.30;1.00;;;;;;4972563;28;20038;-83
2022/04/08 04:55:08;;;;;;;0.82;0.60;;;12.40;1.00;;;;;;4973048;28;20022;-83
2022/04/08 04:57:34;;;;;;;0.70;0.60;;;12.40;1.00;;;;;;4972324;28;20440;-83
2022/04/08 05:00:01;;;;;;;0.98;0.57;;;12.40;1.00;;;;;;4954946;28;20030;-84
2022/04/08 05:02:26;;;;;;;0.47;0.40;;;12.40;1.00;;;;;;4955077;28;20023;-83
2022/04/08 05:04:52;;;;;;;0.60;0.50;;;12.50;1.00;;;;;;4972415;28;20539;-83
2022/04/08 05:07:17;;;;;;;0.60;0.60;;;12.40;1.00;;;;;;4973326;28;20038;-83
2022/04/08 05:09:43;;;;;;;0.50;0.40;;;12.50;1.00;;;;;;4972395;28;20027;-83
2022/04/08 05:12:09;;;;;;;0.88;0.50;;;12.50;1.00;;;;;;4971817;28;20038;-83
2022/04/08 05:14:35;;;;;;;1.52;0.63;;;12.50;1.00;;;;;;4972327;28;20526;-83
2022/04/08 05:17:01;;;;;;;0.40;0.40;;;12.60;1.00;;;;;;4957310;28;20158;-83
2022/04/08 05:19:27;;;;;;;0.65;0.65;;;12.50;1.00;;;;;;4971919;28;20030;-84
2022/04/08 05:21:52;;;;;;;1.60;0.80;;;12.60;1.00;;;;;;4972296;28;20038;-83
2022/04/08 05:24:19;;;;;;;0.50;0.50;;;12.60;1.00;;;;;;4971743;28;20035;-84
2022/04/08 05:26:45;;;;;;;0.93;0.60;;;12.60;1.00;;;;;;4971564;28;20113;-83
2022/04/08 05:29:11;;;;;;;0.75;0.65;;;12.60;1.00;;;;;;4972041;28;20022;-83
2022/04/08 05:31:36;;;;;;;0.40;0.40;;;12.60;1.00;;;;;;4971980;28;20074;-83
2022/04/08 05:34:03;;;;;;;0.60;0.60;;;12.70;1.00;;;;;;4972215;28;20039;-83
2022/04/08 05:36:29;;;;;;;1.42;0.60;;;12.70;1.00;;;;;;4972520;28;20114;-83
2022/04/08 05:38:55;;;;;;;1.10;0.50;;;12.70;1.00;;;;;;4971393;28;20146;-84
2022/04/08 05:41:21;;;;;;;1.75;0.80;;;12.70;1.00;;;;;;4971412;28;20023;-83
2022/04/08 05:43:47;;;;;;;2.17;0.55;;;12.70;1.00;;;;;;4971921;28;20031;-83
2022/04/08 05:46:14;;;;;;;1.63;0.80;;;12.70;1.00;;;;;;4972552;28;20074;-84
2022/04/08 05:48:40;;;;;;;1.55;1.00;;;12.80;1.00;;;;;;4971644;28;20041;-84
2022/04/08 05:51:06;;;;;;;0.80;0.60;;;12.80;1.00;;;;;;4971855;28;20023;-83
2022/04/08 05:53:32;;;;;;;2.78;0.52;;;12.80;1.00;;;;;;4972076;28;20399;-83
2022/04/08 05:55:58;;;;;;;0.60;0.40;;;12.80;1.00;;;;;;4971266;28;20031;-83
2022/04/08 05:58:24;;;;;;;0.77;0.60;;;12.90;1.00;;;;;;4971888;28;20027;-82
2022/04/08 06:00:50;;;;;;;1.38;0.60;;;12.90;1.00;;;;;;4972145;28;20054;-82
2022/04/08 06:03:16;;;;;;;0.40;0.40;;;12.90;1.00;;;;;;4971537;28;20015;-82
2022/04/08 06:05:42;;;;;;;1.25;0.70;;;12.90;1.00;;;;;;4971524;28;20125;-82
2022/04/08 06:08:08;;;;;;;0.80;0.80;;;12.90;1.00;;;;;;4973970;28;20114;-81
2022/04/08 06:10:34;;;;;;;0.38;0.38;;;12.90;1.00;;;;;;4975438;28;20039;-85
2022/04/08 06:13:01;;;;;;;2.53;0.40;;;13.00;1.00;;;;;;4975795;28;20038;-85
2022/04/08 06:15:27;;;;;;;0.57;0.50;;;13.00;1.00;;;;;;4975474;28;20093;-85
2022/04/08 06:17:54;;;;;;;1.33;0.50;;;13.00;1.00;;;;;;4974857;28;20026;-85
2022/04/08 06:20:21;;;;;;;0.75;0.60;;;13.10;1.00;;;;;;4974984;28;20023;-85
2022/04/08 06:22:47;;;;;;;1.58;0.60;;;13.10;1.00;;;;;;4974789;28;20061;-85
2022/04/08 06:25:15;;;;;;;1.30;0.50;;;13.10;1.00;;;;;;4973649;28;20034;-85
2022/04/08 06:27:44;;;;;;;0.57;0.57;;;13.00;1.00;;;;;;4974350;28;20042;-84
2022/04/08 06:30:13;;;;;;;1.75;0.77;;;13.10;1.00;;;;;;4974912;28;20109;-85
2022/04/08 06:32:39;;;;;;;1.85;0.65;;;13.10;1.00;;;;;;4971430;28;20503;-84
2022/04/08 06:35:05;;;;;;;1.02;0.60;;;13.20;1.00;;;;;;4972221;28;20031;-84
2022/04/08 06:37:31;;;;;;;0.98;0.90;;;13.10;1.00;;;;;;4960992;28;20524;-84
2022/04/08 06:40:03;;;;;;;0.73;0.52;;;13.20;1.00;;;;;;4973289;28;20030;-84
2022/04/08 06:42:28;;;;;;;0.50;0.50;;;13.20;1.00;;;;;;4974510;28;20150;-84
2022/04/08 06:44:54;;;;;;;0.75;0.52;;;13.20;1.00;;;;;;4974653;28;20063;-85
2022/04/08 06:47:19;;;;;;;2.30;0.40;;;13.30;1.00;;;;;;4975335;28;20114;-85
2022/04/08 06:49:46;;;;;;;0.30;0.30;;;13.30;1.00;;;;;;4973299;28;20038;-85
2022/04/08 06:52:13;;;;;;;0.60;0.40;;;13.30;1.00;;;;;;4975271;28;20387;-85
2022/04/08 06:54:39;;;;;;;0.60;0.45;;;13.30;1.00;;;;;;4974440;28;20078;-85
2022/04/08 06:57:05;;;;;;;0.52;0.50;;;13.30;1.00;;;;;;4974274;28;20027;-85
2022/04/08 06:59:30;;;;;;;0.50;0.50;;;13.30;1.00;;;;;;4974404;28;20435;-85
2022/04/08 07:01:56;;;;;;;1.25;0.80;;;13.30;1.00;;;;;;4974376;28;20466;-85
2022/04/08 07:04:21;;;;;;;0.52;0.50;;;13.20;1.00;;;;;;4975031;28;20053;-84
2022/04/08 07:06:47;;;;;;;0.93;0.60;;;13.20;1.00;;;;;;4974384;28;20522;-83
2022/04/08 07:09:13;;;;;;;1.00;0.40;;;13.30;1.00;;;;;;4973804;28;20114;-85
2022/04/08 07:11:39;;;;;;;0.50;0.50;;;13.30;1.00;;;;;;4974237;28;20022;-85
2022/04/08 07:14:04;;;;;;;1.05;0.80;;;13.30;1.00;;;;;;4974787;28;20034;-84
2022/04/08 07:16:30;;;;;;;0.85;0.60;;;13.30;1.00;;;;;;4974814;28;20031;-84
2022/04/08 07:18:56;;;;;;;1.42;0.60;;;13.40;1.00;;;;;;4973837;28;20034;-84
2022/04/08 07:21:22;;;;;;;1.00;0.70;;;13.40;1.00;;;;;;4973827;28;20436;-84
2022/04/08 07:23:48;;;;;;;0.60;0.57;;;13.40;1.00;;;;;;4974217;28;20403;-84
2022/04/08 07:26:14;;;;;;;2.78;0.50;;;13.40;1.00;;;;;;4974360;28;20492;-84
2022/04/08 07:28:40;;;;;;;1.38;0.60;;;13.50;1.00;;;;;;4974145;28;20480;-85
2022/04/08 07:31:06;;;;;;;0.50;0.50;;;13.50;1.00;;;;;;4973223;28;20037;-84
2022/04/08 07:33:32;;;;;;;1.50;0.90;;;13.50;1.00;;;;;;4974098;28;20114;-84
2022/04/08 07:36:01;;;;;;;2.08;1.05;;;13.60;1.00;;;;;;4973472;28;20031;-84
2022/04/08 07:38:27;;;;;;;0.60;0.60;;;13.70;1.00;;;;;;4973565;28;20138;-84
2022/04/08 07:40:52;;;;;;;0.60;0.60;;;13.70;1.00;;;;;;4973901;28;24480;-83
2022/04/08 07:43:19;;;;;;;1.52;0.88;;;13.80;1.00;;;;;;4974369;28;20085;-83
2022/04/08 07:45:45;;;;;;;0.40;0.40;;;13.80;1.00;;;;;;4973726;28;20054;-82
2022/04/08 07:48:11;;;;;;;0.60;0.50;;;13.90;1.00;;;;;;4973912;28;20027;-83
2022/04/08 07:50:37;;;;;;;1.35;0.60;;;13.90;1.00;;;;;;4973097;28;20037;-83
2022/04/08 07:53:04;;;;;;;0.70;0.70;;;13.90;1.00;;;;;;4973805;28;20054;-83
2022/04/08 07:55:29;;;;;;;0.75;0.65;;;13.90;1.00;;;;;;4970449;28;20097;-83
2022/04/08 07:57:55;;;;;;;0.73;0.50;;;14.00;1.00;;;;;;4972880;28;20495;-83
2022/04/08 08:00:31;;;;;;;1.15;0.50;;;14.00;1.00;;;;;;4972835;28;20021;-83
2022/04/08 08:02:58;;;;;;;1.23;0.45;;;13.90;1.00;;;;;;4973556;28;20050;-84
2022/04/08 08:05:25;;;;;;;1.75;0.70;;;14.00;1.00;;;;;;4972847;28;20073;-83
2022/04/08 08:07:56;;;;;;;1.45;0.63;;;14.10;1.00;;;;;;4973135;28;20062;-82
2022/04/08 08:10:25;;;;;;;0.50;0.50;;;14.20;1.00;;;;;;4973606;28;20534;-83
2022/04/08 08:12:52;;;;;;;0.60;0.50;;;14.20;1.00;;;;;;4973019;28;20039;-83
2022/04/08 08:15:18;;;;;;;1.13;0.90;;;14.30;1.00;;;;;;4972922;28;20034;-83
2022/04/08 08:17:45;;;;;;;3.25;0.82;;;14.30;1.00;;;;;;4973990;28;20034;-83
2022/04/08 08:20:13;;;;;;;1.50;0.70;;;14.30;1.00;;;;;;4974859;28;20035;-82
2022/04/08 08:22:41;;;;;;;1.35;0.90;;;14.30;1.00;;;;;;4973058;28;20042;-84
2022/04/08 08:25:07;;;;;;;1.70;0.80;;;14.30;1.00;;;;;;4972908;28;20035;-84
2022/04/08 08:27:42;;;;;;;0.73;0.70;;;14.30;1.00;;;;;;4973308;28;20033;-83
2022/04/08 08:30:12;;;;;;;2.47;0.80;;;14.40;1.00;;;;;;4972176;28;20058;-85
2022/04/08 08:32:39;;;;;;;0.82;0.60;;;14.50;1.00;;;;;;4973020;28;20041;-84
2022/04/08 08:35:09;;;;;;;4.85;1.17;;;14.60;1.00;;;;;;4972548;28;20503;-86
2022/04/08 08:37:36;;;;;;;0.60;0.57;;;14.60;1.00;;;;;;4970518;28;20057;-83
2022/04/08 08:40:03;;;;;;;2.05;0.90;;;14.60;1.00;;;;;;4967026;28;20031;-82
2022/04/08 08:42:30;;;;;;;0.88;0.82;;;14.60;1.00;;;;;;4966445;28;20487;-82
2022/04/08 08:44:55;;;;;;;1.65;0.70;;;14.50;1.00;;;;;;4969512;28;20101;-82
2022/04/08 08:47:22;;;;;;;1.08;0.60;;;14.60;1.00;;;;;;4969732;28;20138;-82
2022/04/08 08:49:49;;;;;;;0.80;0.68;;;14.60;1.00;;;;;;4969372;28;20030;-83
2022/04/08 08:52:17;;;;;;;2.60;0.82;;;14.60;1.00;;;;;;4970849;28;20036;-84
2022/04/08 08:54:44;;;;;;;1.17;0.75;;;14.60;1.00;;;;;;4969492;28;20027;-84
2022/04/08 08:57:10;;;;;;;0.60;0.60;;;14.50;1.00;;;;;;4969241;28;20050;-82
2022/04/08 08:59:37;;;;;;;1.40;0.60;;;14.50;1.00;;;;;;4969339;28;20514;-84
2022/04/08 09:02:03;;;;;;;1.73;0.80;;;14.50;1.00;;;;;;4954505;28;20031;-83
2022/04/08 09:04:29;;;;;;;1.48;0.70;;;14.50;1.00;;;;;;4955504;28;20018;-83
2022/04/08 09:06:55;;;;;;;2.58;0.70;;;14.50;1.00;;;;;;4969476;28;20221;-84
2022/04/08 09:09:31;;;;;;;1.27;0.50;;;14.40;1.00;;;;;;4969189;28;20441;-84
2022/04/08 09:12:14;;;;;;;1.77;0.70;;;14.40;1.00;;;;;;4960876;28;20057;-85
2022/04/08 09:15:04;;;;;;;1.75;0.82;;;14.60;1.00;;;;;;4968856;28;20031;-85
2022/04/08 09:17:29;;;;;;;1.35;0.70;;;14.70;1.00;;;;;;4967297;28;20039;-84
2022/04/08 09:19:59;;;;;;;0.95;0.60;;;14.80;1.00;;;;;;4970518;28;20034;-84
2022/04/08 09:22:27;;;;;;;0.80;0.50;;;14.90;1.00;;;;;;4972199;28;20109;-84
2022/04/08 09:24:53;;;;;;;0.50;0.50;;;14.90;1.00;;;;;;4970600;28;20081;-84
2022/04/08 09:27:18;;;;;;;0.65;0.60;;;14.90;1.00;;;;;;4969498;28;20042;-85
2022/04/08 09:29:45;;;;;;;0.95;0.65;;;15.00;1.00;;;;;;4968740;28;20023;-84
2022/04/08 09:32:15;;;;;;;1.00;0.60;;;15.10;1.00;;;;;;4969117;28;20459;-83
2022/04/08 09:34:42;;;;;;;1.52;0.50;;;15.00;1.00;;;;;;4971530;28;20376;-82
2022/04/08 09:37:13;;;;;;;0.47;0.47;;;15.00;1.00;;;;;;4971161;28;20039;-83
2022/04/08 09:40:04;;;;;;;0.47;0.47;;;14.90;1.00;;;;;;4970296;28;20023;-83
2022/04/08 09:42:44;;;;;;;0.90;0.40;;;14.90;1.00;;;;;;4963212;28;20027;-82
2022/04/08 09:45:11;;;;;;;0.68;0.63;;;15.00;1.00;;;;;;4974682;28;20487;-82
2022/04/08 09:47:37;;;;;;;0.50;0.50;;;15.00;1.00;;;;;;4974126;28;20046;-82
2022/04/08 09:50:10;;;;;;;0.70;0.60;;;14.90;1.00;;;;;;4958269;28;20058;-82
2022/04/08 09:52:39;;;;;;;0.55;0.55;;;15.00;1.00;;;;;;4972722;28;20049;-82
2022/04/08 09:55:07;;;;;;;0.45;0.45;;;14.90;1.00;;;;;;4973357;28;20023;-81
2022/04/08 09:57:36;;;;;;;2.10;0.68;;;14.90;1.00;;;;;;4973924;28;20492;-81
2022/04/08 10:00:04;;;;;;;1.42;0.80;;;14.90;1.00;;;;;;4974476;28;20019;-83
2022/04/08 10:02:33;;;;;;;0.77;0.55;;;15.00;1.00;;;;;;4973674;28;20027;-82
2022/04/08 10:05:00;;;;;;;1.63;0.60;;;15.10;1.00;;;;;;4974182;28;20026;-82
2022/04/08 10:07:26;;;;;;;0.90;0.70;;;15.10;1.00;;;;;;4975590;28;20026;-86
2022/04/08 10:10:04;;;;;;;0.88;0.40;;;15.10;1.00;;;;;;4974092;28;20113;-84
2022/04/08 10:12:57;;;;;;;0.57;0.50;;;15.10;1.00;;;;;;4975373;28;20399;-87
2022/04/08 10:15:35;;;;;;;0.60;0.60;;;15.10;1.00;;;;;;4975148;28;20030;-86
2022/04/08 10:18:04;;;;;;;1.33;1.00;;;15.10;1.00;;;;;;4975109;28;20037;-86
2022/04/08 10:20:31;;;;;;;0.60;0.60;;;15.20;1.00;;;;;;4975435;28;20046;-88
2022/04/08 10:23:11;;;;;;;0.80;0.80;;;15.10;1.00;;;;;;4957830;28;20118;-87
2022/04/08 10:25:42;;;;;;;1.23;0.90;;;15.10;1.00;;;;;;4958778;28;20077;-87
2022/04/08 10:28:08;;;;;;;1.60;0.75;;;15.20;1.00;;;;;;4974859;28;20031;-87
2022/04/08 10:30:42;;;;;;;1.60;0.77;;;15.20;1.00;;;;;;4974891;28;20023;-88
2022/04/08 10:33:08;;;;;;;0.73;0.70;;;15.20;1.00;;;;;;4974857;28;20035;-81
2022/04/08 10:35:34;;;;;;;0.98;0.70;;;15.10;1.00;;;;;;4974923;28;20545;-89
2022/04/08 10:38:09;;;;;;;1.55;0.43;;;15.30;1.00;;;;;;4975205;28;20047;-88
2022/04/08 10:40:40;;;;;;;0.47;0.47;;;15.30;1.00;;;;;;4960601;28;20114;-87
2022/04/08 10:43:08;;;;;;;1.80;0.70;;;15.30;1.00;;;;;;4975063;28;20045;-87
2022/04/08 10:45:35;;;;;;;2.47;0.80;;;15.40;1.00;;;;;;4956879;28;20500;-87
2022/04/08 10:48:12;;;;;;;2.53;0.73;;;15.30;1.00;;;;;;4957620;28;20089;-87
2022/04/08 10:50:39;;;;;;;1.05;1.00;;;15.30;1.00;;;;;;4974874;28;20027;-86
2022/04/08 10:53:10;;;;;;;1.98;0.82;;;15.30;1.00;;;;;;4974468;28;20121;-89
2022/04/08 10:55:56;;;;;;;0.77;0.68;;;15.40;1.00;;;;;;4951385;28;20038;-86
2022/04/08 10:58:42;;;;;;;0.93;0.65;;;15.30;1.00;;;;;;4973421;28;20030;-82
2022/04/08 11:01:22;;;;;;;0.60;0.60;;;15.30;1.00;;;;;;4973732;28;20089;-81
2022/04/08 11:04:00;;;;;;;2.45;0.57;;;15.40;1.00;;;;;;4974569;28;20031;-83
2022/04/08 11:06:31;;;;;;;0.65;0.60;;;15.40;1.00;;;;;;4974637;28;20501;-83
2022/04/08 11:09:07;;;;;;;0.40;0.40;;;15.40;1.00;;;;;;4974754;28;20106;-81
2022/04/08 11:11:35;;;;;;;1.15;0.65;;;15.40;1.00;;;;;;4974310;28;20081;-82
2022/04/08 11:14:02;;;;;;;2.00;0.68;;;15.30;1.00;;;;;;4973774;28;20027;-81
2022/04/08 11:16:30;;;;;;;1.02;0.80;;;15.40;1.00;;;;;;4974812;28;20035;-83
2022/04/08 11:18:56;;;;;;;1.58;0.50;;;15.40;1.00;;;;;;4973890;28;20035;-84
2022/04/08 11:21:23;;;;;;;3.20;0.52;;;15.40;1.00;;;;;;4973815;28;20027;-84
2022/04/08 11:23:57;;;;;;;1.67;0.63;;;15.40;1.00;;;;;;4974559;28;20026;-91
2022/04/08 11:26:23;;;;;;;0.80;0.40;;;15.40;1.00;;;;;;4975430;28;20504;-89
2022/04/08 11:28:48;;;;;;;0.50;0.50;;;15.40;1.00;;;;;;4973774;28;20062;-84
2022/04/08 11:31:18;;;;;;;0.70;0.60;;;15.40;1.00;;;;;;4974342;28;20022;-84
2022/04/08 11:33:44;;;;;;;0.50;0.50;;;15.40;1.00;;;;;;4974313;28;20035;-84
2022/04/08 11:36:09;;;;;;;2.45;0.70;;;15.50;1.00;;;;;;4973801;28;20026;-84
2022/04/08 11:38:35;;;;;;;0.70;0.60;;;15.60;1.00;;;;;;4973634;28;20053;-84
2022/04/08 11:41:02;;;;;;;1.25;0.70;;;15.60;1.00;;;;;;4973650;28;20602;-84
2022/04/08 11:43:28;;;;;;;1.98;0.75;;;15.70;1.00;;;;;;4974650;28;20034;-85
2022/04/08 11:45:53;;;;;;;1.23;0.70;;;15.70;1.00;;;;;;4973518;28;20380;-84
2022/04/08 11:48:23;;;;;;;0.70;0.50;;;15.70;1.00;;;;;;4973707;28;20038;-84
2022/04/08 11:50:50;;;;;;;2.15;0.80;;;15.60;1.00;;;;;;4973346;28;20435;-84
2022/04/08 11:53:16;;;;;;;0.50;0.50;;;15.70;1.00;;;;;;4973879;28;20046;-84
2022/04/08 11:55:59;;;;;;;0.68;0.68;;;15.90;1.00;;;;;;4973416;28;20357;-84
2022/04/08 11:58:27;;;;;;;0.55;0.50;;;15.80;1.00;;;;;;4973711;28;20023;-84
2022/04/08 12:00:53;;;;;;;1.58;0.77;;;15.80;1.00;;;;;;4973334;28;20042;-85
2022/04/08 12:03:21;;;;;;;2.53;0.80;;;15.80;1.00;;;;;;4973150;28;20551;-84
2022/04/08 12:05:48;;;;;;;3.22;0.90;;;15.90;1.00;;;;;;4972551;28;20038;-84
2022/04/08 12:08:14;;;;;;;2.15;0.80;;;16.10;1.00;;;;;;4973536;28;20023;-84
2022/04/08 12:10:40;;;;;;;0.70;0.50;;;16.30;1.00;;;;;;4973367;28;20037;-84
2022/04/08 12:13:16;;;;;;;0.80;0.60;;;16.30;1.00;;;;;;4973302;28;20402;-84
2022/04/08 12:15:43;;;;;;;0.70;0.60;;;16.40;1.00;;;;;;4972860;28;20554;-85
2022/04/08 12:18:10;;;;;;;2.10;0.65;;;16.40;1.00;;;;;;4973286;28;20042;-84
2022/04/08 12:20:40;;;;;;;1.52;1.02;;;16.30;1.00;;;;;;4973212;28;20027;-84
2022/04/08 12:23:08;;;;;;;0.63;0.50;;;16.40;1.00;;;;;;4957989;28;20377;-84
2022/04/08 12:25:36;;;;;;;2.15;0.50;;;16.50;1.00;;;;;;4973285;28;20027;-84
2022/04/08 12:28:02;;;;;;;0.55;0.50;;;16.60;1.00;;;;;;4973326;28;20026;-84
2022/04/08 12:30:30;;;;;;;1.23;0.80;;;16.80;1.00;;;;;;4972653;28;20110;-84
2022/04/08 12:32:56;;;;;;;1.85;0.80;;;16.80;1.00;;;;;;4972646;28;20050;-85
2022/04/08 12:35:23;;;;;;;0.80;0.60;;;16.70;1.00;;;;;;4972562;28;20510;-85
2022/04/08 12:37:48;;;;;;;2.65;0.85;;;16.70;1.00;;;;;;4972863;28;20492;-84
2022/04/08 12:40:14;;;;;;;1.80;0.90;;;16.60;1.00;;;;;;4973147;28;20081;-84
2022/04/08 12:42:40;;;;;;;1.38;0.52;;;16.50;1.00;;;;;;4972531;28;20019;-84
2022/04/08 12:45:06;;;;;;;1.45;0.60;;;16.50;1.00;;;;;;4972412;28;20423;-84
2022/04/08 12:47:32;;;;;;;0.80;0.65;;;16.50;1.00;;;;;;4972600;28;20499;-84
2022/04/08 12:49:58;;;;;;;0.65;0.60;;;16.50;1.00;;;;;;4972996;28;20109;-84
2022/04/08 12:52:24;;;;;;;0.80;0.70;;;16.50;1.00;;;;;;4973057;28;20045;-84
2022/04/08 12:54:50;;;;;;;0.70;0.70;;;16.50;1.00;;;;;;4971961;28;20015;-85
2022/04/08 12:57:18;;;;;;;1.40;0.75;;;16.70;1.00;;;;;;4972683;28;20575;-85